createdAt,value
2023-02-14T00:01:27.958Z,60.18
2023-02-14T00:04:00.544Z,61.46
2023-02-14T00:06:28.889Z,61.52
2023-02-14T00:08:56.663Z,64.30
2023-02-14T00:11:24.512Z,65.75
2023-02-14T00:14:06.190Z,65.52
2023-02-14T00:16:35.330Z,65.76
2023-02-14T00:19:06.303Z,64.58
2023-02-14T00:21:36.906Z,64.69
2023-02-14T00:24:05.439Z,65.82
2023-02-14T00:26:33.282Z,65.37
2023-02-14T00:29:01.085Z,66.87
2023-02-14T00:31:29.031Z,64.61
2023-02-14T00:33:58.312Z,63.51
2023-02-14T00:36:26.081Z,62.30
2023-02-14T00:38:54.012Z,62.60
2023-02-14T00:41:21.883Z,64.10
2023-02-14T00:43:53.671Z,66.05
2023-02-14T00:46:23.967Z,65.09
2023-02-14T00:48:52.317Z,64.62
2023-02-14T00:51:22.170Z,63.29
2023-02-14T00:53:51.899Z,62.68
2023-02-14T00:56:21.394Z,62.08
2023-02-14T00:58:49.593Z,62.66
2023-02-14T01:01:19.012Z,62.44
2023-02-14T01:03:46.943Z,62.50
2023-02-14T01:06:14.752Z,62.05
2023-02-14T01:08:43.871Z,62.94
2023-02-14T01:11:14.097Z,65.29
2023-02-14T01:13:42.885Z,66.27
2023-02-14T01:16:14.669Z,66.29
2023-02-14T01:18:43.024Z,63.62
2023-02-14T01:21:13.008Z,63.52
2023-02-14T01:23:40.907Z,64.29
2023-02-14T01:26:10.412Z,63.62
2023-02-14T01:28:38.558Z,63.89
2023-02-14T01:31:11.655Z,64.70
2023-02-14T01:33:40.176Z,64.43
2023-02-14T01:36:15.415Z,63.87
2023-02-14T01:38:43.186Z,63.11
2023-02-14T01:41:12.914Z,62.56
2023-02-14T01:43:55.781Z,63.51
2023-02-14T01:46:26.009Z,62.70
2023-02-14T01:48:56.717Z,62.50
2023-02-14T01:51:25.790Z,62.58
2023-02-14T01:53:55.491Z,62.90
2023-02-14T01:56:29.764Z,62.51
2023-02-14T01:59:02.288Z,62.75
2023-02-14T02:01:31.371Z,62.97
2023-02-14T02:04:08.092Z,64.54
2023-02-14T02:06:41.285Z,63.32
2023-02-14T02:09:14.198Z,63.09
2023-02-14T02:11:43.999Z,64.24
2023-02-14T02:14:15.622Z,62.57
2023-02-14T02:16:57.855Z,62.16
2023-02-14T02:19:51.516Z,63.00
2023-02-14T02:23:04.201Z,64.55
2023-02-14T02:25:49.637Z,64.09
2023-02-14T02:28:39.587Z,63.29
2023-02-14T02:31:36.429Z,63.14
2023-02-14T02:35:11.234Z,63.30
2023-02-14T02:37:48.562Z,63.16
2023-02-14T02:40:30.530Z,63.45
2023-02-14T02:43:12.169Z,62.99
2023-02-14T02:46:06.132Z,62.88
2023-02-14T02:48:41.570Z,62.71
2023-02-14T02:51:34.862Z,62.93
2023-02-14T02:54:14.399Z,62.91
2023-02-14T02:56:51.085Z,63.43
2023-02-14T02:59:23.509Z,63.88
2023-02-14T03:02:00.786Z,64.59
2023-02-14T03:04:47.056Z,64.10
2023-02-14T03:07:33.749Z,63.61
2023-02-14T03:10:06.107Z,63.54
2023-02-14T03:13:10.240Z,63.29
2023-02-14T03:16:05.573Z,63.17
2023-02-14T03:19:16.004Z,63.27
2023-02-14T03:21:55.294Z,63.61
2023-02-14T03:24:31.964Z,64.01
2023-02-14T03:27:06.762Z,63.93
2023-02-14T03:29:45.010Z,63.25
2023-02-14T03:32:19.380Z,63.47
2023-02-14T03:34:57.662Z,63.11
2023-02-14T03:37:29.795Z,63.30
2023-02-14T03:40:07.496Z,63.34
2023-02-14T03:42:40.017Z,63.29
2023-02-14T03:45:14.316Z,63.86
2023-02-14T03:47:44.792Z,63.57
2023-02-14T03:50:17.874Z,63.06
2023-02-14T03:52:47.622Z,63.43
2023-02-14T03:55:21.062Z,63.56
2023-02-14T03:57:54.516Z,63.90
2023-02-14T04:00:22.457Z,63.80
2023-02-14T04:02:54.788Z,63.51
2023-02-14T04:05:25.306Z,63.62
2023-02-14T04:07:55.521Z,63.91
2023-02-14T04:10:25.761Z,63.90
2023-02-14T04:12:53.952Z,64.09
2023-02-14T04:15:22.127Z,64.16
2023-02-14T04:18:07.328Z,63.85
2023-02-14T04:20:35.179Z,63.36
2023-02-14T04:23:03.605Z,63.76
2023-02-14T04:25:33.692Z,63.39
2023-02-14T04:28:01.479Z,63.16
2023-02-14T04:30:29.300Z,64.13
2023-02-14T04:32:57.144Z,63.46
2023-02-14T04:35:25.013Z,63.27
2023-02-14T04:37:53.803Z,63.01
2023-02-14T04:40:21.651Z,62.95
2023-02-14T04:42:50.780Z,63.47
2023-02-14T04:45:18.641Z,63.81
2023-02-14T04:47:46.712Z,63.95
2023-02-14T04:50:15.523Z,64.92
2023-02-14T04:52:43.418Z,64.67
2023-02-14T04:55:11.582Z,64.57
2023-02-14T04:57:39.352Z,64.26
2023-02-14T05:00:11.059Z,64.44
2023-02-14T05:02:38.966Z,64.60
2023-02-14T05:05:07.765Z,64.54
2023-02-14T05:07:35.934Z,64.44
2023-02-14T05:10:04.151Z,65.44
2023-02-14T05:12:32.019Z,64.64
2023-02-14T05:14:59.940Z,64.38
2023-02-14T05:17:29.178Z,64.51
2023-02-14T05:19:57.074Z,64.54
2023-02-14T05:22:24.909Z,65.45
2023-02-14T05:24:52.782Z,64.49
2023-02-14T05:27:20.684Z,66.05
2023-02-14T05:29:48.531Z,66.67
2023-02-14T05:32:16.721Z,66.74
2023-02-14T05:34:45.935Z,67.37
2023-02-14T05:37:13.787Z,67.57
2023-02-14T05:39:41.518Z,66.38
2023-02-14T05:42:12.293Z,65.54
2023-02-14T05:44:40.042Z,66.49
2023-02-14T05:47:08.017Z,64.70
2023-02-14T05:49:36.687Z,65.35
2023-02-14T05:52:06.302Z,65.11
2023-02-14T05:54:34.152Z,65.83
2023-02-14T05:57:01.906Z,65.28
2023-02-14T05:59:29.735Z,64.05
2023-02-14T06:01:57.587Z,64.24
2023-02-14T06:04:25.511Z,64.03
2023-02-14T06:06:53.396Z,63.69
2023-02-14T06:09:22.587Z,64.37
2023-02-14T06:11:50.453Z,66.98
2023-02-14T06:14:18.366Z,69.55
2023-02-14T06:16:46.426Z,70.33
2023-02-14T06:19:14.312Z,70.95
2023-02-14T06:21:42.213Z,70.44
2023-02-14T06:24:10.660Z,70.47
2023-02-14T06:26:39.896Z,70.55
2023-02-14T06:29:07.698Z,69.14
2023-02-14T06:31:35.737Z,68.42
2023-02-14T06:34:03.638Z,68.28
2023-02-14T06:36:31.594Z,67.71
2023-02-14T06:38:59.439Z,66.81
2023-02-14T06:41:27.298Z,65.65
2023-02-14T06:43:56.438Z,65.61
2023-02-14T06:46:24.554Z,65.87
2023-02-14T06:48:52.465Z,66.38
2023-02-14T06:51:20.349Z,66.00
2023-02-14T06:53:48.182Z,67.39
2023-02-14T06:56:16.010Z,66.16
2023-02-14T06:58:43.907Z,66.70
2023-02-14T07:01:13.179Z,66.89
2023-02-14T07:03:41.041Z,67.13
2023-02-14T07:06:09.001Z,65.10
2023-02-14T07:08:37.018Z,63.96
2023-02-14T07:11:04.967Z,63.88
2023-02-14T07:13:32.844Z,65.61
2023-02-14T07:16:00.702Z,65.97
2023-02-14T07:18:29.973Z,64.84
2023-02-14T07:20:58.186Z,66.55
2023-02-14T07:23:26.396Z,66.65
2023-02-14T07:25:54.303Z,65.91
2023-02-14T07:28:22.358Z,65.41
2023-02-14T07:30:50.348Z,63.87
2023-02-14T07:33:18.241Z,63.52
2023-02-14T07:35:47.501Z,62.63
2023-02-14T07:38:15.395Z,61.87
2023-02-14T07:40:43.310Z,61.96
2023-02-14T07:43:11.252Z,61.84
2023-02-14T07:45:39.074Z,61.43
2023-02-14T07:48:07.498Z,60.64
2023-02-14T07:50:35.366Z,60.26
2023-02-14T07:53:04.632Z,59.03
2023-02-14T07:55:32.580Z,59.30
2023-02-14T07:58:00.533Z,59.34
2023-02-14T08:00:28.578Z,59.37
2023-02-14T08:02:56.816Z,59.71
2023-02-14T08:05:24.865Z,59.08
2023-02-14T08:07:52.780Z,58.61
2023-02-14T08:10:22.011Z,58.30
2023-02-14T08:13:03.593Z,57.83
2023-02-14T08:15:50.618Z,57.57
2023-02-14T08:18:19.664Z,57.44
2023-02-14T08:20:49.870Z,57.21
2023-02-14T08:23:18.148Z,56.57
2023-02-14T08:25:47.702Z,55.84
2023-02-14T08:28:15.708Z,55.47
2023-02-14T08:30:43.895Z,55.07
2023-02-14T08:33:12.208Z,54.43
2023-02-14T08:35:40.142Z,54.06
2023-02-14T08:38:08.253Z,53.03
2023-02-14T08:40:37.395Z,52.98
2023-02-14T08:43:07.714Z,52.94
2023-02-14T08:45:36.262Z,52.22
2023-02-14T08:48:05.929Z,52.14
2023-02-14T08:50:34.504Z,52.12
2023-02-14T08:53:02.766Z,52.22
2023-02-14T08:55:30.629Z,51.28
2023-02-14T08:58:00.452Z,51.32
2023-02-14T09:00:29.812Z,51.41
2023-02-14T09:02:57.816Z,50.64
2023-02-14T09:05:25.914Z,50.48
2023-02-14T09:07:55.935Z,49.19
2023-02-14T09:10:24.876Z,49.74
2023-02-14T09:12:53.355Z,48.45
2023-02-14T09:15:21.339Z,48.39
2023-02-14T09:17:51.147Z,48.28
2023-02-14T09:20:19.280Z,47.61
2023-02-14T09:22:48.756Z,47.88
2023-02-14T09:25:17.351Z,47.11
2023-02-14T09:27:45.404Z,47.79
2023-02-14T09:30:14.254Z,46.99
2023-02-14T09:32:42.142Z,46.42
2023-02-14T09:35:11.452Z,46.90
2023-02-14T09:37:39.396Z,45.79
2023-02-14T09:40:08.209Z,45.19
2023-02-14T09:42:46.575Z,46.10
2023-02-14T09:45:16.861Z,45.80
2023-02-14T09:47:49.900Z,45.48
2023-02-14T09:50:25.712Z,44.63
2023-02-14T09:52:58.106Z,45.64
2023-02-14T09:55:32.215Z,43.31
2023-02-14T09:58:08.166Z,43.29
2023-02-14T10:00:39.572Z,41.65
2023-02-14T10:03:31.855Z,40.43
2023-02-14T10:06:10.280Z,42.94
2023-02-14T10:08:56.949Z,41.79
2023-02-14T10:11:25.754Z,42.32
2023-02-14T10:13:58.901Z,42.09
2023-02-14T10:16:31.531Z,41.98
2023-02-14T10:19:03.379Z,41.68
2023-02-14T10:21:40.390Z,41.91
2023-02-14T10:24:17.168Z,40.84
2023-02-14T10:26:46.579Z,40.99
2023-02-14T10:29:17.332Z,40.91
2023-02-14T10:31:55.720Z,40.74
2023-02-14T10:34:31.842Z,40.39
2023-02-14T10:37:33.637Z,37.65
2023-02-14T10:40:21.774Z,38.78
2023-02-14T10:42:58.862Z,37.87
2023-02-14T10:45:34.549Z,36.85
2023-02-14T10:48:10.228Z,36.36
2023-02-14T10:50:42.498Z,36.61
2023-02-14T10:53:20.666Z,36.75
2023-02-14T10:55:53.832Z,36.89
2023-02-14T10:58:23.616Z,35.36
2023-02-14T11:01:01.034Z,35.67
2023-02-14T11:03:30.534Z,34.92
2023-02-14T11:05:58.420Z,33.69
2023-02-14T11:08:32.616Z,31.74
2023-02-14T11:11:08.749Z,26.12
2023-02-14T11:13:38.692Z,23.75
2023-02-14T11:16:08.917Z,23.45
2023-02-14T11:18:39.974Z,21.31
2023-02-14T11:21:10.892Z,20.82
2023-02-14T11:23:42.464Z,22.92
2023-02-14T11:26:17.526Z,24.96
2023-02-14T11:28:54.363Z,24.83
2023-02-14T11:31:28.116Z,22.28
2023-02-14T11:33:56.166Z,22.30
2023-02-14T11:36:24.768Z,27.03
2023-02-14T11:39:03.116Z,26.15
2023-02-14T11:41:47.854Z,28.20
2023-02-14T11:44:22.552Z,27.21
2023-02-14T11:46:53.448Z,28.36
2023-02-14T11:49:30.951Z,27.55
2023-02-14T11:52:01.332Z,27.23
2023-02-14T11:54:37.689Z,25.27
2023-02-14T11:57:09.706Z,22.92
2023-02-14T11:59:41.838Z,24.45
2023-02-14T12:02:26.175Z,23.97
2023-02-14T12:04:56.996Z,26.07
2023-02-14T12:07:29.742Z,26.19
2023-02-14T12:10:22.971Z,27.90
2023-02-14T12:12:53.630Z,27.38
2023-02-14T12:15:28.313Z,27.83
2023-02-14T12:18:03.910Z,23.01
2023-02-14T12:20:41.925Z,21.58
2023-02-14T12:23:19.123Z,23.17
2023-02-14T12:25:55.546Z,25.17
2023-02-14T12:28:30.805Z,24.35
2023-02-14T12:30:59.267Z,24.38
2023-02-14T12:33:27.489Z,25.74
2023-02-14T12:36:05.472Z,26.33
2023-02-14T12:38:44.734Z,27.63
2023-02-14T12:41:30.942Z,28.16
2023-02-14T12:44:02.767Z,27.65
2023-02-14T12:46:55.932Z,25.89
2023-02-14T12:49:52.467Z,25.57
2023-02-14T12:52:39.767Z,26.61
2023-02-14T12:55:28.582Z,26.64
2023-02-14T12:58:05.209Z,25.33
2023-02-14T13:00:43.657Z,24.86
2023-02-14T13:03:39.496Z,23.65
2023-02-14T13:06:15.712Z,22.47
2023-02-14T13:09:01.549Z,20.33
2023-02-14T13:11:37.985Z,21.68
2023-02-14T13:14:16.594Z,20.36
2023-02-14T13:16:51.203Z,20.72
2023-02-14T13:19:36.246Z,19.28
2023-02-14T13:22:06.893Z,20.75
2023-02-14T13:24:41.256Z,21.64
2023-02-14T13:27:15.083Z,20.62
2023-02-14T13:29:48.195Z,21.38
2023-02-14T13:32:20.221Z,21.65
2023-02-14T13:34:50.108Z,23.13
2023-02-14T13:37:20.579Z,22.90
2023-02-14T13:39:52.504Z,23.52
2023-02-14T13:42:54.845Z,23.38
2023-02-14T13:45:56.086Z,18.69
2023-02-14T13:48:27.502Z,18.04
2023-02-14T13:50:58.310Z,21.26
2023-02-14T13:53:48.876Z,21.42
2023-02-14T13:56:35.688Z,23.21
2023-02-14T13:59:06.993Z,24.80
2023-02-14T14:01:40.489Z,24.16
2023-02-14T14:04:35.256Z,23.05
2023-02-14T14:07:27.065Z,23.24
2023-02-14T14:10:03.562Z,23.33
2023-02-14T14:12:39.712Z,21.59
2023-02-14T14:15:19.415Z,20.31
2023-02-14T14:18:11.899Z,19.91
2023-02-14T14:20:47.850Z,22.54
2023-02-14T14:23:30.975Z,23.31
2023-02-14T14:25:59.711Z,26.27
2023-02-14T14:28:31.231Z,25.71
2023-02-14T14:30:59.677Z,25.30
2023-02-14T14:33:32.551Z,24.57
2023-02-14T14:36:02.872Z,23.50
2023-02-14T14:38:31.973Z,23.69
2023-02-14T14:41:01.180Z,24.54
2023-02-14T14:43:32.526Z,23.41
2023-02-14T14:46:02.983Z,21.93
2023-02-14T14:48:38.473Z,21.77
2023-02-14T14:51:08.594Z,22.76
2023-02-14T14:53:44.418Z,22.18
2023-02-14T14:56:14.552Z,23.01
2023-02-14T14:58:43.229Z,22.54
2023-02-14T15:01:21.361Z,21.96
2023-02-14T15:03:50.726Z,20.42
2023-02-14T15:06:22.289Z,19.82
2023-02-14T15:08:51.477Z,19.41
2023-02-14T15:11:37.442Z,19.03
2023-02-14T15:14:09.013Z,18.31
2023-02-14T15:16:42.751Z,17.52
2023-02-14T15:19:19.316Z,18.26
2023-02-14T15:21:47.436Z,19.23
2023-02-14T15:24:18.416Z,20.24
2023-02-14T15:26:48.034Z,23.10
2023-02-14T15:29:23.131Z,23.80
2023-02-14T15:31:51.715Z,25.29
2023-02-14T15:34:24.792Z,26.57
2023-02-14T15:36:57.494Z,27.31
2023-02-14T15:39:30.812Z,28.81
2023-02-14T15:41:58.638Z,29.52
2023-02-14T15:44:27.638Z,29.93
2023-02-14T15:46:58.098Z,30.55
2023-02-14T15:49:33.788Z,29.79
2023-02-14T15:52:04.621Z,29.89
2023-02-14T15:54:38.132Z,31.20
2023-02-14T15:57:08.850Z,32.72
2023-02-14T15:59:41.045Z,33.72
2023-02-14T16:02:25.262Z,34.18
2023-02-14T16:04:54.633Z,34.24
2023-02-14T16:07:27.255Z,34.80
2023-02-14T16:10:22.077Z,34.72
2023-02-14T16:12:58.996Z,35.26
2023-02-14T16:15:28.630Z,35.63
2023-02-14T16:17:56.723Z,35.73
2023-02-14T16:20:39.763Z,35.84
2023-02-14T16:23:25.276Z,36.29
2023-02-14T16:25:54.060Z,36.44
2023-02-14T16:28:22.927Z,38.03
2023-02-14T16:30:55.938Z,37.68
2023-02-14T16:33:26.309Z,38.74
2023-02-14T16:35:55.850Z,40.28
2023-02-14T16:38:23.840Z,40.90
2023-02-14T16:40:54.278Z,41.20
2023-02-14T16:43:22.195Z,41.62
2023-02-14T16:45:50.340Z,42.81
2023-02-14T16:48:18.161Z,43.24
2023-02-14T16:50:47.477Z,41.92
2023-02-14T16:53:24.993Z,41.36
2023-02-14T16:55:54.602Z,41.28
2023-02-14T16:58:24.460Z,41.72
2023-02-14T17:00:52.411Z,42.18
2023-02-14T17:03:20.608Z,42.18
2023-02-14T17:05:48.493Z,42.53
2023-02-14T17:08:18.151Z,43.29
2023-02-14T17:10:48.475Z,43.94
2023-02-14T17:13:19.929Z,44.49
2023-02-14T17:15:48.334Z,45.88
2023-02-14T17:18:18.257Z,45.16
2023-02-14T17:20:46.107Z,45.77
2023-02-14T17:23:13.883Z,46.03
2023-02-14T17:25:43.169Z,46.52
2023-02-14T17:28:11.029Z,46.64
2023-02-14T17:30:38.874Z,46.67
2023-02-14T17:33:06.610Z,46.68
2023-02-14T17:35:35.033Z,47.07
2023-02-14T17:38:03.243Z,47.53
2023-02-14T17:40:32.223Z,47.73
2023-02-14T17:43:01.525Z,47.53
2023-02-14T17:45:29.584Z,47.71
2023-02-14T17:47:57.374Z,48.15
2023-02-14T17:50:25.255Z,48.60
2023-02-14T17:52:55.062Z,48.92
2023-02-14T17:55:23.420Z,49.31
2023-02-14T17:57:52.558Z,49.72
2023-02-14T18:00:25.004Z,50.09
2023-02-14T18:02:52.926Z,49.81
2023-02-14T18:05:20.767Z,50.13
2023-02-14T18:07:48.588Z,50.27
2023-02-14T18:10:16.366Z,50.48
2023-02-14T18:12:44.226Z,50.55
2023-02-14T18:15:12.017Z,51.13
2023-02-14T18:17:41.170Z,52.05
2023-02-14T18:20:09.854Z,51.45
2023-02-14T18:22:37.748Z,51.98
2023-02-14T18:25:06.137Z,51.62
2023-02-14T18:27:33.855Z,51.65
2023-02-14T18:30:01.763Z,52.88
2023-02-14T18:32:29.571Z,52.62
2023-02-14T18:34:58.635Z,52.87
2023-02-14T18:37:26.361Z,54.11
2023-02-14T18:39:54.194Z,52.50
2023-02-14T18:42:21.958Z,54.10
2023-02-14T18:44:49.694Z,55.27
2023-02-14T18:47:17.549Z,54.81
2023-02-14T18:49:45.269Z,54.86
2023-02-14T18:52:14.465Z,55.00
2023-02-14T18:54:42.568Z,56.11
2023-02-14T18:57:10.336Z,55.61
2023-02-14T18:59:39.196Z,55.69
2023-02-14T19:02:07.311Z,56.64
2023-02-14T19:04:35.291Z,56.20
2023-02-14T19:07:04.453Z,55.83
2023-02-14T19:09:38.979Z,56.08
2023-02-14T19:12:07.448Z,56.22
2023-02-14T19:14:35.288Z,54.08
2023-02-14T19:17:04.345Z,54.44
2023-02-14T19:19:32.591Z,54.19
2023-02-14T19:22:00.950Z,55.47
2023-02-14T19:24:29.064Z,56.38
2023-02-14T19:26:58.428Z,56.78
2023-02-14T19:29:26.195Z,57.78
2023-02-14T19:31:55.716Z,58.46
2023-02-14T19:34:27.872Z,57.65
2023-02-14T19:36:59.036Z,59.09
2023-02-14T19:39:29.412Z,58.81
2023-02-14T19:41:59.699Z,59.14
2023-02-14T19:44:29.265Z,59.32
2023-02-14T19:46:59.908Z,60.08
2023-02-14T19:49:29.790Z,61.15
2023-02-14T19:51:58.846Z,61.08
2023-02-14T19:54:27.059Z,59.88
2023-02-14T19:56:56.269Z,59.32
2023-02-14T19:59:25.594Z,58.97
2023-02-14T20:01:54.773Z,58.62
2023-02-14T20:04:25.159Z,58.01
2023-02-14T20:06:53.538Z,58.20
2023-02-14T20:09:22.790Z,57.85
2023-02-14T20:11:54.200Z,58.41
2023-02-14T20:14:23.937Z,58.10
2023-02-14T20:16:54.549Z,58.57
2023-02-14T20:19:26.897Z,57.95
2023-02-14T20:21:55.365Z,59.50
2023-02-14T20:24:25.095Z,59.18
2023-02-14T20:26:53.907Z,59.45
2023-02-14T20:29:23.363Z,60.34
2023-02-14T20:31:54.393Z,59.11
2023-02-14T20:34:22.584Z,60.07
2023-02-14T20:36:53.106Z,59.30
2023-02-14T20:39:22.583Z,58.98
2023-02-14T20:41:50.664Z,58.60
2023-02-14T20:44:21.541Z,58.90
2023-02-14T20:46:51.433Z,58.55
2023-02-14T20:49:21.340Z,58.70
2023-02-14T20:51:50.629Z,60.20
2023-02-14T20:54:19.097Z,60.29
2023-02-14T20:56:47.255Z,59.22
2023-02-14T20:59:15.672Z,58.60
2023-02-14T21:01:43.545Z,58.46
2023-02-14T21:04:11.438Z,59.61
2023-02-14T21:06:40.559Z,59.15
2023-02-14T21:09:08.600Z,57.93
2023-02-14T21:11:36.685Z,57.17
2023-02-14T21:14:04.547Z,58.64
2023-02-14T21:16:32.406Z,58.93
2023-02-14T21:19:00.977Z,58.06
2023-02-14T21:21:32.655Z,58.02
2023-02-14T21:24:04.072Z,58.49
2023-02-14T21:26:32.168Z,58.43
2023-02-14T21:28:59.961Z,58.48
2023-02-14T21:31:27.816Z,57.44
2023-02-14T21:33:57.147Z,57.37
2023-02-14T21:36:26.611Z,57.54
2023-02-14T21:38:56.852Z,57.44
2023-02-14T21:41:27.801Z,57.81
2023-02-14T21:43:57.192Z,57.43
2023-02-14T21:46:27.585Z,57.11
2023-02-14T21:49:13.586Z,56.59
2023-02-14T21:51:41.500Z,57.02
2023-02-14T21:54:09.611Z,57.51
2023-02-14T21:56:41.500Z,57.19
2023-02-14T21:59:10.491Z,57.23
2023-02-14T22:01:41.041Z,58.15
2023-02-14T22:04:10.437Z,57.56
2023-02-14T22:06:40.950Z,58.84
2023-02-14T22:09:09.498Z,58.33
2023-02-14T22:11:39.840Z,58.43
2023-02-14T22:14:07.586Z,57.80
2023-02-14T22:16:36.756Z,57.99
2023-02-14T22:19:05.154Z,57.52
2023-02-14T22:21:33.423Z,56.99
2023-02-14T22:24:01.931Z,57.89
2023-02-14T22:26:31.372Z,57.63
2023-02-14T22:29:02.095Z,57.91
2023-02-14T22:31:33.921Z,57.55
2023-02-14T22:34:01.926Z,57.72
2023-02-14T22:36:29.715Z,58.44
2023-02-14T22:38:57.491Z,59.41
2023-02-14T22:41:26.515Z,58.75
2023-02-14T22:43:55.500Z,58.14
2023-02-14T22:46:26.727Z,57.85
2023-02-14T22:48:55.576Z,58.07
2023-02-14T22:51:25.019Z,57.91
2023-02-14T22:53:55.072Z,57.72
2023-02-14T22:56:25.128Z,58.52
2023-02-14T22:58:55.102Z,60.00
2023-02-14T23:01:25.086Z,59.08
2023-02-14T23:03:54.903Z,58.12
2023-02-14T23:06:23.138Z,58.58
2023-02-14T23:08:51.230Z,58.76
2023-02-14T23:11:21.032Z,58.53
2023-02-14T23:14:06.409Z,58.67
2023-02-14T23:17:07.529Z,58.35
2023-02-14T23:19:54.618Z,58.78
2023-02-14T23:22:24.695Z,58.37
2023-02-14T23:24:54.336Z,58.30
2023-02-14T23:27:23.756Z,58.05
2023-02-14T23:29:51.579Z,57.56
2023-02-14T23:32:20.739Z,58.63
2023-02-14T23:34:48.614Z,57.89
2023-02-14T23:37:16.625Z,57.32
2023-02-14T23:39:44.400Z,56.59
2023-02-14T23:42:13.666Z,56.00
2023-02-14T23:44:41.605Z,55.94
2023-02-14T23:47:10.217Z,56.00
2023-02-14T23:49:40.970Z,55.51
2023-02-14T23:52:10.681Z,55.32
2023-02-14T23:54:39.839Z,54.88
2023-02-14T23:57:08.752Z,54.64
2023-02-14T23:59:36.788Z,54.16
